createdAt,value
2022-10-18T00:00:53.527Z,11.50
2022-10-18T00:03:20.698Z,11.50
2022-10-18T00:05:49.530Z,11.42
2022-10-18T00:08:18.705Z,11.40
2022-10-18T00:10:47.085Z,11.40
2022-10-18T00:13:14.136Z,11.40
2022-10-18T00:15:49.837Z,11.40
2022-10-18T00:18:16.765Z,11.40
2022-10-18T00:20:43.661Z,11.40
2022-10-18T00:23:10.492Z,11.40
2022-10-18T00:25:37.353Z,11.40
2022-10-18T00:28:04.225Z,11.38
2022-10-18T00:30:31.140Z,11.30
2022-10-18T00:32:57.983Z,11.30
2022-10-18T00:35:25.318Z,11.30
2022-10-18T00:37:52.126Z,11.30
2022-10-18T00:40:19.123Z,11.30
2022-10-18T00:42:45.965Z,11.30
2022-10-18T00:45:25.524Z,11.20
2022-10-18T00:48:02.885Z,11.20
2022-10-18T00:50:33.990Z,11.20
2022-10-18T00:53:06.921Z,11.18
2022-10-18T00:55:34.402Z,11.12
2022-10-18T00:58:02.559Z,11.10
2022-10-18T01:00:29.804Z,11.10
2022-10-18T01:02:59.121Z,11.10
2022-10-18T01:05:26.716Z,11.10
2022-10-18T01:08:06.008Z,11.10
2022-10-18T01:10:47.741Z,11.10
2022-10-18T01:13:36.891Z,11.10
2022-10-18T01:17:03.510Z,11.06
2022-10-18T01:20:15.890Z,11.00
2022-10-18T01:22:55.142Z,11.00
2022-10-18T01:25:46.764Z,11.00
2022-10-18T01:28:46.404Z,10.90
2022-10-18T01:31:23.630Z,10.90
2022-10-18T01:33:59.822Z,10.90
2022-10-18T01:36:41.361Z,10.80
2022-10-18T01:39:17.986Z,10.80
2022-10-18T01:41:49.325Z,10.80
2022-10-18T01:44:23.576Z,10.80
2022-10-18T01:46:54.866Z,10.80
2022-10-18T01:49:21.842Z,10.80
2022-10-18T01:51:48.790Z,10.80
2022-10-18T01:54:32.826Z,10.80
2022-10-18T01:57:25.245Z,10.80
2022-10-18T02:00:06.350Z,10.80
2022-10-18T02:02:50.768Z,10.80
2022-10-18T02:05:48.485Z,10.80
2022-10-18T02:08:27.701Z,10.80
2022-10-18T02:11:05.449Z,10.72
2022-10-18T02:14:06.032Z,10.70
2022-10-18T02:16:54.568Z,10.70
2022-10-18T02:19:39.241Z,10.80
2022-10-18T02:22:10.630Z,10.88
2022-10-18T02:24:47.436Z,10.90
2022-10-18T02:27:14.847Z,11.00
2022-10-18T02:29:43.847Z,11.00
2022-10-18T02:32:29.735Z,10.90
2022-10-18T02:35:16.772Z,10.70
2022-10-18T02:37:47.743Z,10.50
2022-10-18T02:40:16.139Z,10.30
2022-10-18T02:42:54.331Z,10.10
2022-10-18T02:45:22.009Z,10.00
2022-10-18T02:47:48.954Z,9.96
2022-10-18T02:50:15.817Z,9.90
2022-10-18T02:52:42.583Z,9.90
2022-10-18T02:55:10.909Z,9.90
2022-10-18T02:57:37.979Z,9.90
2022-10-18T03:00:06.989Z,9.90
2022-10-18T03:02:33.999Z,9.90
2022-10-18T03:05:00.855Z,9.90
2022-10-18T03:07:27.787Z,9.90
2022-10-18T03:09:54.606Z,9.90
2022-10-18T03:12:21.702Z,9.90
2022-10-18T03:14:48.721Z,9.90
2022-10-18T03:17:15.870Z,9.90
2022-10-18T03:19:42.839Z,9.90
2022-10-18T03:22:09.759Z,9.98
2022-10-18T03:24:36.703Z,10.00
2022-10-18T03:27:03.845Z,10.00
2022-10-18T03:29:30.695Z,10.00
2022-10-18T03:31:57.517Z,10.00
2022-10-18T03:34:24.365Z,10.00
2022-10-18T03:36:51.345Z,10.00
2022-10-18T03:39:18.330Z,10.00
2022-10-18T03:41:45.178Z,10.00
2022-10-18T03:44:12.158Z,10.00
2022-10-18T03:46:39.004Z,10.00
2022-10-18T03:49:05.790Z,10.00
2022-10-18T03:51:32.620Z,10.00
2022-10-18T03:53:59.638Z,10.00
2022-10-18T03:56:26.447Z,9.94
2022-10-18T03:58:53.401Z,9.90
2022-10-18T04:01:20.303Z,9.82
2022-10-18T04:03:47.200Z,9.80
2022-10-18T04:06:14.148Z,9.90
2022-10-18T04:08:40.992Z,9.90
2022-10-18T04:11:08.651Z,10.00
2022-10-18T04:13:36.281Z,10.00
2022-10-18T04:16:03.245Z,10.10
2022-10-18T04:18:30.202Z,10.10
2022-10-18T04:20:57.863Z,10.20
2022-10-18T04:23:24.745Z,10.20
2022-10-18T04:25:51.768Z,10.30
2022-10-18T04:28:18.900Z,10.30
2022-10-18T04:30:53.747Z,10.40
2022-10-18T04:33:21.106Z,10.40
2022-10-18T04:35:52.246Z,10.40
2022-10-18T04:38:20.300Z,10.40
2022-10-18T04:40:46.976Z,10.40
2022-10-18T04:43:13.940Z,10.50
2022-10-18T04:45:40.825Z,10.48
2022-10-18T04:48:07.938Z,10.50
2022-10-18T04:50:34.696Z,10.50
2022-10-18T04:53:01.660Z,10.50
2022-10-18T04:55:28.503Z,10.50
2022-10-18T04:57:55.641Z,10.50
2022-10-18T05:00:22.586Z,10.50
2022-10-18T05:02:49.421Z,10.58
2022-10-18T05:05:16.398Z,10.60
2022-10-18T05:07:43.329Z,10.60
2022-10-18T05:10:10.349Z,10.60
2022-10-18T05:12:37.319Z,10.60
2022-10-18T05:15:04.856Z,10.60
2022-10-18T05:17:31.814Z,10.60
2022-10-18T05:19:58.871Z,10.60
2022-10-18T05:22:25.678Z,10.52
2022-10-18T05:24:52.551Z,10.50
2022-10-18T05:27:19.677Z,10.50
2022-10-18T05:29:46.650Z,10.50
2022-10-18T05:32:13.478Z,10.50
2022-10-18T05:34:40.353Z,10.50
2022-10-18T05:37:07.380Z,10.50
2022-10-18T05:39:34.224Z,10.50
2022-10-18T05:42:01.082Z,10.50
2022-10-18T05:44:27.919Z,10.46
2022-10-18T05:46:54.744Z,10.50
2022-10-18T05:49:21.676Z,10.50
2022-10-18T05:51:48.945Z,10.50
2022-10-18T05:54:16.122Z,10.50
2022-10-18T05:56:42.955Z,10.50
2022-10-18T05:59:12.255Z,10.60
2022-10-18T06:01:41.440Z,10.62
2022-10-18T06:04:10.416Z,10.70
2022-10-18T06:06:38.793Z,10.76
2022-10-18T06:09:08.729Z,10.80
2022-10-18T06:11:37.060Z,10.90
2022-10-18T06:14:05.256Z,10.90
2022-10-18T06:16:32.784Z,10.94
2022-10-18T06:19:00.162Z,11.00
2022-10-18T06:21:27.969Z,11.00
2022-10-18T06:23:58.746Z,11.10
2022-10-18T06:26:28.187Z,11.20
2022-10-18T06:28:55.250Z,11.28
2022-10-18T06:31:22.110Z,11.30
2022-10-18T06:33:49.343Z,11.32
2022-10-18T06:36:21.981Z,11.40
2022-10-18T06:38:48.957Z,11.48
2022-10-18T06:41:19.252Z,11.50
2022-10-18T06:43:57.708Z,11.60
2022-10-18T06:46:26.444Z,11.70
2022-10-18T06:48:53.211Z,11.82
2022-10-18T06:51:20.661Z,11.92
2022-10-18T06:53:59.612Z,12.00
2022-10-18T06:56:35.736Z,12.00
2022-10-18T06:59:02.718Z,12.00
2022-10-18T07:01:29.884Z,12.06
2022-10-18T07:03:57.027Z,12.10
2022-10-18T07:06:24.860Z,12.20
2022-10-18T07:08:55.089Z,12.30
2022-10-18T07:11:26.453Z,12.36
2022-10-18T07:14:06.055Z,12.40
2022-10-18T07:16:34.530Z,12.50
2022-10-18T07:19:01.403Z,12.50
2022-10-18T07:21:28.656Z,12.60
2022-10-18T07:23:56.438Z,12.70
2022-10-18T07:26:29.151Z,12.78
2022-10-18T07:29:05.230Z,12.86
2022-10-18T07:31:32.110Z,12.92
2022-10-18T07:33:59.260Z,12.94
2022-10-18T07:36:26.298Z,12.98
2022-10-18T07:38:53.637Z,13.00
2022-10-18T07:41:21.734Z,13.00
2022-10-18T07:43:51.772Z,13.02
2022-10-18T07:46:21.932Z,13.12
2022-10-18T07:48:49.609Z,13.24
2022-10-18T07:51:17.887Z,13.32
2022-10-18T07:53:44.853Z,13.40
2022-10-18T07:56:16.563Z,13.50
2022-10-18T07:58:53.232Z,13.52
2022-10-18T08:01:23.118Z,13.60
2022-10-18T08:03:50.929Z,13.70
2022-10-18T08:06:21.145Z,13.70
2022-10-18T08:08:48.613Z,13.80
2022-10-18T08:11:23.484Z,13.90
2022-10-18T08:13:52.524Z,14.00
2022-10-18T08:18:59.195Z,14.14
2022-10-18T08:21:26.816Z,14.20
2022-10-18T08:23:54.074Z,14.20
2022-10-18T08:26:22.973Z,14.20
2022-10-18T08:28:54.322Z,14.20
2022-10-18T08:31:31.183Z,14.20
2022-10-18T08:33:58.217Z,14.10
2022-10-18T08:36:25.366Z,14.10
2022-10-18T08:38:52.607Z,14.04
2022-10-18T08:41:37.589Z,14.02
2022-10-18T08:44:46.774Z,14.10
2022-10-18T08:47:37.454Z,14.18
2022-10-18T08:50:21.499Z,14.20
2022-10-18T08:53:17.799Z,14.20
2022-10-18T08:56:00.914Z,14.32
2022-10-18T08:58:33.376Z,14.60
2022-10-18T09:01:27.675Z,14.64
2022-10-18T09:04:26.168Z,14.60
2022-10-18T09:07:26.702Z,14.60
2022-10-18T09:10:44.998Z,14.62
2022-10-18T09:13:37.976Z,14.66
2022-10-18T09:16:28.296Z,14.70
2022-10-18T09:20:05.585Z,14.70
2022-10-18T09:22:59.896Z,14.80
2022-10-18T09:25:41.649Z,14.90
2022-10-18T09:28:16.066Z,14.90
2022-10-18T09:31:36.589Z,15.00
2022-10-18T09:34:51.865Z,15.10
2022-10-18T09:37:22.469Z,15.20
2022-10-18T09:39:56.106Z,15.30
2022-10-18T09:42:36.044Z,15.38
2022-10-18T09:45:20.633Z,15.46
2022-10-18T09:48:10.871Z,15.50
2022-10-18T09:51:05.260Z,15.60
2022-10-18T09:54:14.221Z,15.70
2022-10-18T09:57:17.557Z,15.80
2022-10-18T09:59:50.025Z,15.90
2022-10-18T10:02:23.667Z,16.00
2022-10-18T10:04:52.067Z,16.10
2022-10-18T10:07:34.909Z,16.28
2022-10-18T10:10:21.798Z,16.30
2022-10-18T10:13:02.359Z,16.38
2022-10-18T10:15:33.176Z,16.40
2022-10-18T10:18:15.297Z,16.48
2022-10-18T10:20:43.221Z,16.52
2022-10-18T10:23:28.430Z,16.60
2022-10-18T10:26:06.658Z,16.64
2022-10-18T10:28:46.342Z,16.70
2022-10-18T10:31:27.382Z,16.74
2022-10-18T10:34:20.324Z,16.90
2022-10-18T10:36:51.528Z,17.00
2022-10-18T10:39:21.857Z,17.00
2022-10-18T10:42:01.208Z,17.10
2022-10-18T10:44:36.069Z,17.12
2022-10-18T10:47:04.204Z,17.20
2022-10-18T10:49:47.559Z,17.30
2022-10-18T10:52:29.076Z,17.40
2022-10-18T10:55:11.362Z,17.40
2022-10-18T10:57:48.404Z,17.50
2022-10-18T11:00:43.431Z,17.60
2022-10-18T11:03:34.745Z,17.70
2022-10-18T11:06:02.186Z,17.80
2022-10-18T11:08:41.510Z,17.80
2022-10-18T11:11:50.013Z,17.90
2022-10-18T11:14:32.434Z,18.00
2022-10-18T11:17:01.142Z,18.10
2022-10-18T11:19:54.962Z,18.10
2022-10-18T11:22:27.803Z,18.20
2022-10-18T11:24:55.103Z,18.28
2022-10-18T11:27:34.385Z,18.30
2022-10-18T11:30:34.899Z,18.40
2022-10-18T11:33:19.666Z,18.50
2022-10-18T11:36:34.043Z,18.50
2022-10-18T11:39:06.211Z,18.60
2022-10-18T11:41:46.166Z,18.70
2022-10-18T11:44:44.189Z,18.70
2022-10-18T11:47:33.348Z,18.78
2022-10-18T11:50:11.505Z,18.90
2022-10-18T11:53:07.431Z,18.90
2022-10-18T11:56:04.994Z,19.06
2022-10-18T11:58:59.954Z,19.10
2022-10-18T12:02:09.011Z,19.10
2022-10-18T12:04:53.050Z,19.20
2022-10-18T12:07:42.103Z,19.30
2022-10-18T12:10:19.498Z,19.30
2022-10-18T12:13:03.624Z,19.40
2022-10-18T12:15:37.505Z,19.40
2022-10-18T12:18:16.195Z,19.50
2022-10-18T12:20:51.652Z,19.50
2022-10-18T12:23:36.583Z,19.60
2022-10-18T12:26:08.374Z,19.60
2022-10-18T12:28:47.296Z,19.66
2022-10-18T12:31:36.989Z,19.70
2022-10-18T12:34:21.687Z,19.80
2022-10-18T12:37:20.729Z,19.84
2022-10-18T12:40:21.766Z,19.90
2022-10-18T12:42:52.153Z,19.98
2022-10-18T12:45:36.639Z,20.00
2022-10-18T12:48:08.586Z,20.00
2022-10-18T12:50:42.637Z,20.10
2022-10-18T12:53:20.266Z,20.10
2022-10-18T12:55:51.654Z,20.16
2022-10-18T12:58:30.522Z,20.20
2022-10-18T13:01:04.123Z,20.20
2022-10-18T13:03:56.355Z,20.26
2022-10-18T13:06:24.245Z,20.30
2022-10-18T13:09:17.953Z,20.30
2022-10-18T13:11:45.329Z,20.40
2022-10-18T13:14:27.119Z,20.40
2022-10-18T13:17:26.610Z,20.40
2022-10-18T13:20:37.434Z,20.50
2022-10-18T13:24:05.479Z,20.50
2022-10-18T13:27:31.362Z,20.52
2022-10-18T13:30:17.505Z,20.60
2022-10-18T13:33:29.293Z,20.60
2022-10-18T13:36:26.127Z,20.70
2022-10-18T13:39:03.831Z,20.70
2022-10-18T13:41:56.705Z,20.70
2022-10-18T13:44:46.563Z,20.78
2022-10-18T13:47:37.992Z,20.80
2022-10-18T13:53:16.002Z,20.80
2022-10-18T13:56:01.902Z,20.80
2022-10-18T13:58:49.114Z,20.82
2022-10-18T14:01:26.112Z,20.80
2022-10-18T14:04:19.301Z,20.80
2022-10-18T14:06:48.359Z,20.90
2022-10-18T14:12:38.711Z,20.90
2022-10-18T14:15:31.315Z,20.90
2022-10-18T14:18:23.491Z,20.90
2022-10-18T14:21:16.917Z,20.90
2022-10-18T14:23:47.722Z,21.00
2022-10-18T14:26:18.480Z,21.00
2022-10-18T14:29:01.420Z,21.10
2022-10-18T14:31:28.777Z,21.10
2022-10-18T14:33:58.983Z,21.02
2022-10-18T14:36:42.720Z,21.00
2022-10-18T14:39:22.657Z,20.90
2022-10-18T14:41:58.932Z,20.86
2022-10-18T14:44:31.848Z,20.90
2022-10-18T14:47:04.086Z,20.90
2022-10-18T14:49:31.349Z,20.80
2022-10-18T14:52:00.429Z,20.80
2022-10-18T14:54:37.944Z,20.80
2022-10-18T14:57:06.917Z,20.80
2022-10-18T14:59:44.481Z,20.80
2022-10-18T15:02:15.286Z,20.70
2022-10-18T15:04:47.050Z,20.70
2022-10-18T15:07:17.461Z,20.60
2022-10-18T15:09:47.195Z,20.56
2022-10-18T15:12:16.201Z,20.50
2022-10-18T15:14:45.703Z,20.50
2022-10-18T15:17:34.292Z,20.40
2022-10-18T15:20:18.436Z,20.40
2022-10-18T15:22:48.970Z,20.30
2022-10-18T15:25:21.034Z,20.26
2022-10-18T15:27:58.186Z,20.20
2022-10-18T15:30:38.502Z,20.10
2022-10-18T15:33:10.790Z,20.10
2022-10-18T15:35:39.836Z,20.10
2022-10-18T15:38:26.954Z,20.00
2022-10-18T15:40:55.105Z,20.00
2022-10-18T15:43:27.898Z,20.00
2022-10-18T15:46:05.055Z,19.90
2022-10-18T15:48:39.134Z,19.90
2022-10-18T15:51:46.903Z,19.80
2022-10-18T15:54:29.824Z,19.76
2022-10-18T15:56:57.394Z,19.70
2022-10-18T15:59:28.504Z,19.60
2022-10-18T16:01:55.560Z,19.46
2022-10-18T16:04:27.949Z,19.30
2022-10-18T16:06:58.554Z,19.20
2022-10-18T16:09:28.908Z,19.10
2022-10-18T16:11:57.487Z,19.00
2022-10-18T16:14:27.544Z,18.86
2022-10-18T16:17:00.950Z,18.70
2022-10-18T16:19:29.520Z,18.60
2022-10-18T16:21:56.862Z,18.50
2022-10-18T16:24:24.402Z,18.40
2022-10-18T16:26:53.898Z,18.30
2022-10-18T16:29:28.698Z,18.20
2022-10-18T16:31:58.344Z,18.10
2022-10-18T16:34:27.593Z,18.00
2022-10-18T16:36:55.501Z,17.90
2022-10-18T16:39:24.704Z,17.82
2022-10-18T16:41:52.413Z,17.70
2022-10-18T16:44:19.551Z,17.70
2022-10-18T16:46:51.067Z,17.60
2022-10-18T16:49:26.369Z,17.50
2022-10-18T16:51:55.001Z,17.40
2022-10-18T16:54:23.161Z,17.32
2022-10-18T16:56:50.550Z,17.30
2022-10-18T16:59:30.515Z,17.20
2022-10-18T17:01:58.179Z,17.10
2022-10-18T17:04:25.073Z,17.00
2022-10-18T17:06:54.557Z,16.90
2022-10-18T17:09:21.438Z,16.86
2022-10-18T17:11:48.246Z,16.80
2022-10-18T17:14:15.068Z,16.70
2022-10-18T17:16:44.515Z,16.60
2022-10-18T17:19:15.032Z,16.60
2022-10-18T17:21:41.977Z,16.50
2022-10-18T17:24:08.928Z,16.50
2022-10-18T17:26:35.705Z,16.42
2022-10-18T17:29:06.335Z,16.40
2022-10-18T17:31:33.800Z,16.38
2022-10-18T17:34:02.129Z,16.30
2022-10-18T17:36:31.542Z,16.28
2022-10-18T17:38:59.103Z,16.20
2022-10-18T17:41:26.477Z,16.20
2022-10-18T17:43:53.718Z,16.20
2022-10-18T17:46:20.958Z,16.10
2022-10-18T17:48:47.777Z,16.10
2022-10-18T17:51:17.241Z,16.10
2022-10-18T17:53:44.648Z,16.10
2022-10-18T17:56:13.031Z,16.06
2022-10-18T17:58:40.379Z,16.00
2022-10-18T18:01:17.809Z,16.00
2022-10-18T18:03:47.604Z,16.00
2022-10-18T18:06:22.826Z,16.00
2022-10-18T18:08:50.487Z,15.98
2022-10-18T18:11:18.464Z,15.90
2022-10-18T18:13:46.012Z,15.90
2022-10-18T18:16:21.802Z,15.90
2022-10-18T18:18:53.921Z,15.90
2022-10-18T18:21:22.117Z,15.92
2022-10-18T18:23:49.863Z,16.00
2022-10-18T18:26:17.685Z,16.00
2022-10-18T18:28:45.030Z,16.00
2022-10-18T18:31:19.765Z,16.00
2022-10-18T18:33:46.621Z,16.10
2022-10-18T18:36:13.606Z,16.10
2022-10-18T18:38:44.508Z,16.20
2022-10-18T18:41:18.666Z,16.28
2022-10-18T18:43:58.638Z,16.30
2022-10-18T18:46:28.588Z,16.40
2022-10-18T18:48:58.322Z,16.48
2022-10-18T18:51:25.758Z,16.50
2022-10-18T18:53:52.646Z,16.50
2022-10-18T18:56:24.095Z,16.60
2022-10-18T18:58:53.683Z,16.56
2022-10-18T19:01:25.026Z,16.50
2022-10-18T19:03:55.067Z,16.40
2022-10-18T19:06:25.801Z,16.40
2022-10-18T19:08:58.181Z,16.40
2022-10-18T19:11:24.998Z,16.40
2022-10-18T19:13:51.939Z,16.40
2022-10-18T19:16:33.852Z,16.40
2022-10-18T19:19:14.039Z,16.40
2022-10-18T19:21:56.876Z,16.46
2022-10-18T19:24:27.317Z,16.48
2022-10-18T19:27:02.068Z,16.50
2022-10-18T19:29:38.993Z,16.50
2022-10-18T19:32:11.959Z,16.50
2022-10-18T19:34:39.312Z,16.50
2022-10-18T19:37:06.044Z,16.50
2022-10-18T19:39:35.549Z,16.48
2022-10-18T19:42:06.909Z,16.50
2022-10-18T19:44:36.749Z,16.48
2022-10-18T19:47:06.635Z,16.48
2022-10-18T19:49:33.528Z,16.50
2022-10-18T19:52:00.387Z,16.46
2022-10-18T19:54:27.289Z,16.42
2022-10-18T19:56:54.167Z,16.48
2022-10-18T19:59:22.663Z,16.48
2022-10-18T20:01:49.982Z,16.48
2022-10-18T20:04:17.636Z,16.50
2022-10-18T20:06:45.333Z,16.50
2022-10-18T20:09:17.689Z,16.50
2022-10-18T20:11:47.516Z,16.50
2022-10-18T20:14:14.373Z,16.60
2022-10-18T20:16:41.201Z,16.60
2022-10-18T20:19:08.253Z,16.60
2022-10-18T20:21:36.582Z,16.60
2022-10-18T20:24:06.028Z,16.60
2022-10-18T20:26:35.956Z,16.64
2022-10-18T20:29:04.303Z,16.70
2022-10-18T20:31:37.150Z,16.70
2022-10-18T20:34:08.154Z,16.80
2022-10-18T20:36:35.468Z,16.80
2022-10-18T20:39:03.758Z,16.80
2022-10-18T20:41:41.139Z,16.88
2022-10-18T20:44:19.486Z,16.90
2022-10-18T20:46:47.117Z,16.90
2022-10-18T20:49:16.638Z,17.00
2022-10-18T20:51:43.794Z,17.00
2022-10-18T20:54:12.280Z,17.00
2022-10-18T20:56:39.578Z,17.10
2022-10-18T20:59:09.654Z,17.10
2022-10-18T21:01:38.703Z,17.10
2022-10-18T21:04:08.513Z,17.18
2022-10-18T21:06:42.409Z,17.20
2022-10-18T21:09:18.910Z,17.20
2022-10-18T21:11:49.781Z,17.20
2022-10-18T21:14:20.327Z,17.20
2022-10-18T21:16:48.339Z,17.20
2022-10-18T21:19:21.337Z,17.20
2022-10-18T21:21:51.961Z,17.20
2022-10-18T21:24:20.989Z,17.26
2022-10-18T21:26:48.437Z,17.30
2022-10-18T21:29:20.770Z,17.30
2022-10-18T21:31:49.200Z,17.30
2022-10-18T21:34:17.552Z,17.30
2022-10-18T21:36:46.925Z,17.30
2022-10-18T21:39:20.921Z,17.30
2022-10-18T21:41:47.916Z,17.40
2022-10-18T21:44:16.577Z,17.40
2022-10-18T21:46:44.178Z,17.40
2022-10-18T21:49:11.497Z,17.40
2022-10-18T21:51:38.945Z,17.40
2022-10-18T21:54:11.534Z,17.40
2022-10-18T21:56:38.745Z,17.40
2022-10-18T21:59:05.950Z,17.40
2022-10-18T22:01:38.772Z,17.40
2022-10-18T22:04:17.253Z,17.40
2022-10-18T22:06:44.056Z,17.40
2022-10-18T22:09:12.765Z,17.40
2022-10-18T22:11:45.439Z,17.40
2022-10-18T22:14:12.791Z,17.40
2022-10-18T22:16:39.580Z,17.40
2022-10-18T22:19:07.825Z,17.40
2022-10-18T22:21:35.275Z,17.40
2022-10-18T22:24:07.293Z,17.38
2022-10-18T22:26:38.266Z,17.30
2022-10-18T22:29:20.936Z,17.30
2022-10-18T22:31:52.429Z,17.30
2022-10-18T22:34:29.153Z,17.30
2022-10-18T22:36:56.574Z,17.30
2022-10-18T22:39:24.680Z,17.30
2022-10-18T22:41:55.925Z,17.30
2022-10-18T22:44:23.626Z,17.30
2022-10-18T22:46:50.472Z,17.30
2022-10-18T22:49:17.336Z,17.30
2022-10-18T22:51:44.288Z,17.30
2022-10-18T22:54:11.225Z,17.30
2022-10-18T22:56:38.074Z,17.30
2022-10-18T22:59:04.901Z,17.30
2022-10-18T23:01:31.752Z,17.30
2022-10-18T23:04:00.897Z,17.32
2022-10-18T23:06:35.388Z,17.30
2022-10-18T23:09:10.183Z,17.36
2022-10-18T23:11:38.189Z,17.40
2022-10-18T23:14:07.056Z,17.32
2022-10-18T23:16:34.101Z,17.32
2022-10-18T23:19:01.038Z,17.30
2022-10-18T23:21:29.338Z,17.30
2022-10-18T23:23:57.712Z,17.30
2022-10-18T23:26:27.865Z,17.30
2022-10-18T23:28:55.550Z,17.30
2022-10-18T23:31:25.715Z,17.30
2022-10-18T23:33:56.972Z,17.30
2022-10-18T23:36:25.511Z,17.30
2022-10-18T23:38:53.378Z,17.30
2022-10-18T23:41:20.423Z,17.30
2022-10-18T23:43:47.800Z,17.20
2022-10-18T23:46:16.870Z,17.20
2022-10-18T23:52:50.400Z,17.20
2022-10-18T23:55:17.384Z,17.20
2022-10-18T23:57:44.311Z,17.20
